Middlesborough, Kentucky
Current Conditions -  °F | °C
As of 5:55 PM on Tuesday 21 Oct 2014 (Local Time) from K1A6 Reporting Station
Overcast Overcast  
Wind Chill: 56°   Ceiling: 4300
Heat Index: 56°   Visibility: 10mi
Dew Point: 42°   Wind: 16mph
Humidity: 59%   Direction: 20°NNE
Pressure: 30.06"   Gusts: 23mph
Location:  36.61°N, 83.72°W
Report Text: K1A6 212155Z AUTO 02014G20KT 10SM BKN043 OVC060 14/06 A3006 RMK AO2 T01350055
Loading
Personal Weather Stations






























Interactive Weather Map
Tropical Storm Tracking
New forecast layout! Learn more

10-Day Weather Forecast

Advertisements
Track Severe Weather on mobile